sensor_id;sensor_type;location;lat;lon;timestamp;pressure;altitude;pressure_sealevel;temperature;humidity
17764;BME280;22245;52.832;13.816;2022-10-16T00:02:30;100953.03;;;15.76;83.59
17764;BME280;22245;52.832;13.816;2022-10-16T00:05:53;100940.63;;;15.75;83.75
17764;BME280;22245;52.832;13.816;2022-10-16T00:09:15;100946.00;;;15.75;83.80
17764;BME280;22245;52.832;13.816;2022-10-16T00:12:37;100953.38;;;15.73;83.57
17764;BME280;22245;52.832;13.816;2022-10-16T00:15:59;100958.72;;;15.73;83.57
17764;BME280;22245;52.832;13.816;2022-10-16T00:19:21;100955.34;;;15.71;83.58
17764;BME280;22245;52.832;13.816;2022-10-16T00:22:44;100965.25;;;15.70;84.07
17764;BME280;22245;52.832;13.816;2022-10-16T00:26:07;100963.56;;;15.69;84.12
17764;BME280;22245;52.832;13.816;2022-10-16T00:29:29;100978.00;;;15.68;83.90
17764;BME280;22245;52.832;13.816;2022-10-16T00:32:50;100972.78;;;15.67;84.03
17764;BME280;22245;52.832;13.816;2022-10-16T00:36:15;100976.47;;;15.66;84.25
17764;BME280;22245;52.832;13.816;2022-10-16T00:39:38;100974.94;;;15.63;84.05
17764;BME280;22245;52.832;13.816;2022-10-16T00:42:59;100968.72;;;15.62;84.31
17764;BME280;22245;52.832;13.816;2022-10-16T00:46:23;100969.72;;;15.61;84.31
17764;BME280;22245;52.832;13.816;2022-10-16T00:49:47;100986.84;;;15.60;84.24
17764;BME280;22245;52.832;13.816;2022-10-16T00:53:10;100981.63;;;15.59;84.62
17764;BME280;22245;52.832;13.816;2022-10-16T00:56:34;100982.63;;;15.58;84.35
17764;BME280;22245;52.832;13.816;2022-10-16T00:59:55;100983.63;;;15.57;84.49
17764;BME280;22245;52.832;13.816;2022-10-16T01:03:24;100983.78;;;15.55;84.62
17764;BME280;22245;52.832;13.816;2022-10-16T01:06:56;100981.09;;;15.55;84.87
17764;BME280;22245;52.832;13.816;2022-10-16T01:10:27;100983.97;;;15.54;84.95
17764;BME280;22245;52.832;13.816;2022-10-16T01:13:55;100993.84;;;15.53;84.98
17764;BME280;22245;52.832;13.816;2022-10-16T01:17:21;100996.53;;;15.53;84.99
17764;BME280;22245;52.832;13.816;2022-10-16T01:20:47;101011.78;;;15.53;85.43
17764;BME280;22245;52.832;13.816;2022-10-16T01:24:17;101008.13;;;15.54;85.65
17764;BME280;22245;52.832;13.816;2022-10-16T01:27:45;100999.88;;;15.55;85.30
17764;BME280;22245;52.832;13.816;2022-10-16T01:31:09;101015.84;;;15.57;85.53
17764;BME280;22245;52.832;13.816;2022-10-16T01:34:36;101007.81;;;15.57;85.38
17764;BME280;22245;52.832;13.816;2022-10-16T01:38:01;100990.00;;;15.56;85.70
17764;BME280;22245;52.832;13.816;2022-10-16T01:41:31;101008.81;;;15.56;85.45
17764;BME280;22245;52.832;13.816;2022-10-16T01:44:56;101013.16;;;15.57;85.51
17764;BME280;22245;52.832;13.816;2022-10-16T01:48:21;101014.16;;;15.56;85.59
17764;BME280;22245;52.832;13.816;2022-10-16T01:51:47;101019.38;;;15.57;85.55
17764;BME280;22245;52.832;13.816;2022-10-16T01:55:14;101029.28;;;15.57;85.77
17764;BME280;22245;52.832;13.816;2022-10-16T01:58:38;101025.59;;;15.58;86.04
17764;BME280;22245;52.832;13.816;2022-10-16T02:02:06;101021.91;;;15.59;86.03
17764;BME280;22245;52.832;13.816;2022-10-16T02:05:32;101036.16;;;15.59;86.02
17764;BME280;22245;52.832;13.816;2022-10-16T02:08:55;101029.78;;;15.60;85.66
17764;BME280;22245;52.832;13.816;2022-10-16T02:12:23;101023.59;;;15.60;85.77
17764;BME280;22245;52.832;13.816;2022-10-16T02:15:47;101033.47;;;15.59;85.55
17764;BME280;22245;52.832;13.816;2022-10-16T02:19:15;101038.00;;;15.59;85.76
17764;BME280;22245;52.832;13.816;2022-10-16T02:22:41;101064.69;;;15.60;85.80
17764;BME280;22245;52.832;13.816;2022-10-16T02:26:07;101060.19;;;15.61;85.91
17764;BME280;22245;52.832;13.816;2022-10-16T02:29:30;101043.38;;;15.59;86.14
17764;BME280;22245;52.832;13.816;2022-10-16T02:32:53;101052.13;;;15.61;86.13
17764;BME280;22245;52.832;13.816;2022-10-16T02:36:17;101046.75;;;15.61;86.06
17764;BME280;22245;52.832;13.816;2022-10-16T02:39:38;101050.25;;;15.61;85.95
17764;BME280;22245;52.832;13.816;2022-10-16T02:43:04;101050.44;;;15.60;86.28
17764;BME280;22245;52.832;13.816;2022-10-16T02:46:25;101055.81;;;15.60;85.94
17764;BME280;22245;52.832;13.816;2022-10-16T02:49:47;101060.31;;;15.59;86.10
17764;BME280;22245;52.832;13.816;2022-10-16T02:53:10;101067.53;;;15.59;85.84
17764;BME280;22245;52.832;13.816;2022-10-16T02:56:32;101064.84;;;15.59;85.68
17764;BME280;22245;52.832;13.816;2022-10-16T02:59:54;101070.22;;;15.59;85.69
17764;BME280;22245;52.832;13.816;2022-10-16T03:03:15;101073.06;;;15.57;85.64
17764;BME280;22245;52.832;13.816;2022-10-16T03:06:36;101075.91;;;15.56;85.78
17764;BME280;22245;52.832;13.816;2022-10-16T03:09:59;101076.06;;;15.54;86.26
17764;BME280;22245;52.832;13.816;2022-10-16T03:13:21;101079.88;;;15.52;86.08
17764;BME280;22245;52.832;13.816;2022-10-16T03:16:42;101075.50;;;15.51;86.09
17764;BME280;22245;52.832;13.816;2022-10-16T03:20:04;101085.41;;;15.50;86.13
17764;BME280;22245;52.832;13.816;2022-10-16T03:23:26;101088.09;;;15.50;86.31
17764;BME280;22245;52.832;13.816;2022-10-16T03:26:49;101084.56;;;15.49;86.19
17764;BME280;22245;52.832;13.816;2022-10-16T03:30:11;101085.72;;;15.47;86.60
17764;BME280;22245;52.832;13.816;2022-10-16T03:33:33;101098.28;;;15.46;86.75
17764;BME280;22245;52.832;13.816;2022-10-16T03:36:54;101101.28;;;15.43;86.81
17764;BME280;22245;52.832;13.816;2022-10-16T03:40:15;101098.91;;;15.40;86.82
17764;BME280;22245;52.832;13.816;2022-10-16T03:43:39;101093.03;;;15.37;87.09
17764;BME280;22245;52.832;13.816;2022-10-16T03:47:01;101089.66;;;15.34;86.85
17764;BME280;22245;52.832;13.816;2022-10-16T03:50:22;101096.16;;;15.32;87.24
17764;BME280;22245;52.832;13.816;2022-10-16T03:53:44;101099.00;;;15.30;87.28
17764;BME280;22245;52.832;13.816;2022-10-16T03:57:05;101108.03;;;15.29;87.20
17764;BME280;22245;52.832;13.816;2022-10-16T04:00:28;101108.34;;;15.26;87.19
17764;BME280;22245;52.832;13.816;2022-10-16T04:03:49;101125.63;;;15.24;87.06
17764;BME280;22245;52.832;13.816;2022-10-16T04:07:11;101134.97;;;15.19;87.25
17764;BME280;22245;52.832;13.816;2022-10-16T04:10:32;101134.41;;;15.16;87.19
17764;BME280;22245;52.832;13.816;2022-10-16T04:13:53;101124.81;;;15.13;87.62
17764;BME280;22245;52.832;13.816;2022-10-16T04:17:16;101126.97;;;15.10;87.92
17764;BME280;22245;52.832;13.816;2022-10-16T04:20:38;101131.66;;;15.08;87.53
17764;BME280;22245;52.832;13.816;2022-10-16T04:23:59;101140.69;;;15.07;87.61
17764;BME280;22245;52.832;13.816;2022-10-16T04:27:21;101158.59;;;15.06;88.32
17764;BME280;22245;52.832;13.816;2022-10-16T04:30:43;101136.16;;;15.07;87.69
17764;BME280;22245;52.832;13.816;2022-10-16T04:34:06;101140.69;;;15.07;87.71
17764;BME280;22245;52.832;13.816;2022-10-16T04:37:27;101145.88;;;15.08;87.11
17764;BME280;22245;52.832;13.816;2022-10-16T04:40:49;101142.06;;;15.11;86.88
17764;BME280;22245;52.832;13.816;2022-10-16T04:44:11;101137.53;;;15.11;86.43
17764;BME280;22245;52.832;13.816;2022-10-16T04:47:32;101142.91;;;15.11;86.02
17764;BME280;22245;52.832;13.816;2022-10-16T04:50:54;101150.94;;;15.11;85.68
17764;BME280;22245;52.832;13.816;2022-10-16T04:54:16;101140.53;;;15.08;85.58
17764;BME280;22245;52.832;13.816;2022-10-16T04:57:38;101150.72;;;15.04;85.73
17764;BME280;22245;52.832;13.816;2022-10-16T05:00:59;101166.97;;;15.03;85.45
17764;BME280;22245;52.832;13.816;2022-10-16T05:04:20;101158.38;;;14.99;85.32
17764;BME280;22245;52.832;13.816;2022-10-16T05:07:43;101148.91;;;14.95;85.61
17764;BME280;22245;52.832;13.816;2022-10-16T05:11:05;101158.25;;;14.91;86.24
17764;BME280;22245;52.832;13.816;2022-10-16T05:14:27;101153.91;;;14.90;86.35
17764;BME280;22245;52.832;13.816;2022-10-16T05:17:52;101163.09;;;14.87;85.64
17764;BME280;22245;52.832;13.816;2022-10-16T05:21:14;101164.09;;;14.86;85.87
17764;BME280;22245;52.832;13.816;2022-10-16T05:24:37;101175.13;;;14.83;86.72
17764;BME280;22245;52.832;13.816;2022-10-16T05:27:59;101185.00;;;14.83;86.80
17764;BME280;22245;52.832;13.816;2022-10-16T05:31:21;101177.94;;;14.82;86.26
17764;BME280;22245;52.832;13.816;2022-10-16T05:34:43;101189.53;;;14.82;86.34
17764;BME280;22245;52.832;13.816;2022-10-16T05:38:04;101186.84;;;14.82;86.75
17764;BME280;22245;52.832;13.816;2022-10-16T05:41:27;101185.97;;;14.82;86.69
17764;BME280;22245;52.832;13.816;2022-10-16T05:44:49;101193.19;;;14.81;86.42
17764;BME280;22245;52.832;13.816;2022-10-16T05:48:11;101201.25;;;14.81;87.32
17764;BME280;22245;52.832;13.816;2022-10-16T05:51:32;101200.38;;;14.81;87.51
17764;BME280;22245;52.832;13.816;2022-10-16T05:54:53;101206.75;;;14.80;87.30
17764;BME280;22245;52.832;13.816;2022-10-16T05:58:17;101211.28;;;14.79;87.64
17764;BME280;22245;52.832;13.816;2022-10-16T06:01:39;101207.72;;;14.79;87.94
17764;BME280;22245;52.832;13.816;2022-10-16T06:05:00;101206.59;;;14.81;88.27
17764;BME280;22245;52.832;13.816;2022-10-16T06:08:22;101212.78;;;14.82;88.37
17764;BME280;22245;52.832;13.816;2022-10-16T06:11:44;101218.84;;;14.84;87.85
17764;BME280;22245;52.832;13.816;2022-10-16T06:15:08;101222.41;;;14.84;87.95
17764;BME280;22245;52.832;13.816;2022-10-16T06:18:30;101218.72;;;14.85;87.98
17764;BME280;22245;52.832;13.816;2022-10-16T06:21:51;101216.72;;;14.87;88.20
17764;BME280;22245;52.832;13.816;2022-10-16T06:25:13;101228.28;;;14.88;88.50
17764;BME280;22245;52.832;13.816;2022-10-16T06:28:34;101229.84;;;14.90;88.27
17764;BME280;22245;52.832;13.816;2022-10-16T06:31:57;101235.91;;;14.93;88.56
17764;BME280;22245;52.832;13.816;2022-10-16T06:35:19;101238.41;;;14.94;88.84
17764;BME280;22245;52.832;13.816;2022-10-16T06:38:40;101226.69;;;14.95;88.18
17764;BME280;22245;52.832;13.816;2022-10-16T06:42:02;101234.47;;;14.98;88.33
17764;BME280;22245;52.832;13.816;2022-10-16T06:45:28;101241.38;;;15.01;88.74
17764;BME280;22245;52.832;13.816;2022-10-16T06:48:52;101238.56;;;15.02;88.73
17764;BME280;22245;52.832;13.816;2022-10-16T06:52:14;101248.97;;;15.05;88.45
17764;BME280;22245;52.832;13.816;2022-10-16T06:55:35;101259.72;;;15.05;88.52
17764;BME280;22245;52.832;13.816;2022-10-16T06:58:57;101271.97;;;15.08;88.81
17764;BME280;22245;52.832;13.816;2022-10-16T07:02:18;101271.66;;;15.11;88.78
17764;BME280;22245;52.832;13.816;2022-10-16T07:05:42;101266.16;;;15.13;88.67
17764;BME280;22245;52.832;13.816;2022-10-16T07:09:05;101278.44;;;15.15;88.70
17764;BME280;22245;52.832;13.816;2022-10-16T07:12:27;101277.47;;;15.16;88.53
17764;BME280;22245;52.832;13.816;2022-10-16T07:15:49;101277.16;;;15.19;88.08
17764;BME280;22245;52.832;13.816;2022-10-16T07:19:11;101276.88;;;15.23;88.50
17764;BME280;22245;52.832;13.816;2022-10-16T07:22:35;101288.59;;;15.22;88.66
17764;BME280;22245;52.832;13.816;2022-10-16T07:25:57;101296.16;;;15.26;88.41
17764;BME280;22245;52.832;13.816;2022-10-16T07:29:20;101305.78;;;15.29;88.53
17764;BME280;22245;52.832;13.816;2022-10-16T07:32:42;101306.31;;;15.32;88.51
17764;BME280;22245;52.832;13.816;2022-10-16T07:36:05;101320.28;;;15.36;88.08
17764;BME280;22245;52.832;13.816;2022-10-16T07:39:32;101317.31;;;15.39;88.41
17764;BME280;22245;52.832;13.816;2022-10-16T07:42:53;101309.50;;;15.46;88.54
17764;BME280;22245;52.832;13.816;2022-10-16T07:46:17;101314.41;;;15.51;88.32
17764;BME280;22245;52.832;13.816;2022-10-16T07:49:39;101300.41;;;15.57;88.18
17764;BME280;22245;52.832;13.816;2022-10-16T07:53:01;101309.00;;;15.60;87.39
17764;BME280;22245;52.832;13.816;2022-10-16T07:56:24;101315.75;;;15.65;87.68
17764;BME280;22245;52.832;13.816;2022-10-16T07:59:46;101327.06;;;15.68;87.50
17764;BME280;22245;52.832;13.816;2022-10-16T08:03:08;101323.06;;;15.72;87.32
17764;BME280;22245;52.832;13.816;2022-10-16T08:06:34;101321.06;;;15.74;87.27
17764;BME280;22245;52.832;13.816;2022-10-16T08:09:56;101319.63;;;15.80;87.11
17764;BME280;22245;52.832;13.816;2022-10-16T08:13:20;101321.84;;;15.85;87.06
17764;BME280;22245;52.832;13.816;2022-10-16T08:16:42;101317.88;;;15.89;87.13
17764;BME280;22245;52.832;13.816;2022-10-16T08:20:03;101318.44;;;15.93;86.79
17764;BME280;22245;52.832;13.816;2022-10-16T08:23:25;101334.94;;;15.98;86.89
17764;BME280;22245;52.832;13.816;2022-10-16T08:26:47;101330.25;;;16.00;86.51
17764;BME280;22245;52.832;13.816;2022-10-16T08:30:10;101327.44;;;16.01;86.72
17764;BME280;22245;52.832;13.816;2022-10-16T08:33:32;101336.19;;;16.03;86.56
17764;BME280;22245;52.832;13.816;2022-10-16T08:36:54;101335.88;;;16.06;86.53
17764;BME280;22245;52.832;13.816;2022-10-16T08:40:18;101317.63;;;16.10;86.12
17764;BME280;22245;52.832;13.816;2022-10-16T08:43:56;101313.63;;;16.14;86.25
17764;BME280;22245;52.832;13.816;2022-10-16T08:47:23;101334.63;;;16.19;85.88
17764;BME280;22245;52.832;13.816;2022-10-16T08:50:47;101348.47;;;16.24;85.97
17764;BME280;22245;52.832;13.816;2022-10-16T08:54:22;101330.34;;;16.26;86.06
17764;BME280;22245;52.832;13.816;2022-10-16T08:57:46;101339.63;;;16.32;85.87
17764;BME280;22245;52.832;13.816;2022-10-16T09:01:12;101338.50;;;16.34;85.88
17764;BME280;22245;52.832;13.816;2022-10-16T09:04:51;101337.88;;;16.41;86.08
17764;BME280;22245;52.832;13.816;2022-10-16T09:08:23;101340.06;;;16.45;86.11
17764;BME280;22245;52.832;13.816;2022-10-16T09:11:54;101334.25;;;16.50;85.70
17764;BME280;22245;52.832;13.816;2022-10-16T09:15:23;101349.75;;;16.56;85.86
17764;BME280;22245;52.832;13.816;2022-10-16T09:18:56;101347.59;;;16.60;85.25
17764;BME280;22245;52.832;13.816;2022-10-16T09:22:25;101355.88;;;16.67;85.49
17764;BME280;22245;52.832;13.816;2022-10-16T09:25:51;101353.59;;;16.72;85.34
17764;BME280;22245;52.832;13.816;2022-10-16T09:29:14;101353.78;;;16.78;84.75
17764;BME280;22245;52.832;13.816;2022-10-16T09:32:38;101362.06;;;16.85;84.80
17764;BME280;22245;52.832;13.816;2022-10-16T09:36:03;101361.63;;;16.90;84.89
17764;BME280;22245;52.832;13.816;2022-10-16T09:39:26;101364.13;;;16.91;84.04
17764;BME280;22245;52.832;13.816;2022-10-16T09:42:48;101355.44;;;16.98;84.19
17764;BME280;22245;52.832;13.816;2022-10-16T09:46:22;101367.44;;;17.03;84.00
17764;BME280;22245;52.832;13.816;2022-10-16T09:49:53;101378.88;;;17.05;82.88
17764;BME280;22245;52.832;13.816;2022-10-16T09:53:15;101376.56;;;17.11;83.37
17764;BME280;22245;52.832;13.816;2022-10-16T09:56:40;101386.00;;;17.15;82.61
17764;BME280;22245;52.832;13.816;2022-10-16T10:00:08;101381.47;;;17.15;83.03
17764;BME280;22245;52.832;13.816;2022-10-16T10:03:35;101378.47;;;17.18;82.59
17764;BME280;22245;52.832;13.816;2022-10-16T10:06:58;101387.59;;;17.26;82.23
17764;BME280;22245;52.832;13.816;2022-10-16T10:10:21;101391.59;;;17.21;82.25
17764;BME280;22245;52.832;13.816;2022-10-16T10:13:45;101386.91;;;17.24;81.88
17764;BME280;22245;52.832;13.816;2022-10-16T10:17:16;101378.69;;;17.25;82.18
17764;BME280;22245;52.832;13.816;2022-10-16T10:20:39;101397.03;;;17.30;81.69
17764;BME280;22245;52.832;13.816;2022-10-16T10:24:00;101398.41;;;17.34;81.79
17764;BME280;22245;52.832;13.816;2022-10-16T10:27:27;101401.78;;;17.36;81.75
17764;BME280;22245;52.832;13.816;2022-10-16T10:30:56;101408.53;;;17.40;81.57
17764;BME280;22245;52.832;13.816;2022-10-16T10:34:32;101412.97;;;17.49;81.26
17764;BME280;22245;52.832;13.816;2022-10-16T10:38:05;101406.59;;;17.59;81.25
17764;BME280;22245;52.832;13.816;2022-10-16T10:42:00;101416.59;;;17.67;79.43
17764;BME280;22245;52.832;13.816;2022-10-16T10:45:27;101414.06;;;17.73;80.39
17764;BME280;22245;52.832;13.816;2022-10-16T10:49:00;101410.56;;;17.81;79.74
17764;BME280;22245;52.832;13.816;2022-10-16T10:52:34;101412.78;;;17.86;79.63
17764;BME280;22245;52.832;13.816;2022-10-16T10:56:06;101402.38;;;17.91;77.26
17764;BME280;22245;52.832;13.816;2022-10-16T11:07:15;101404.78;;;18.11;76.58
17764;BME280;22245;52.832;13.816;2022-10-16T11:10:45;101413.75;;;18.19;75.95
17764;BME280;22245;52.832;13.816;2022-10-16T11:14:14;101422.19;;;18.25;73.99
17764;BME280;22245;52.832;13.816;2022-10-16T11:17:41;101428.78;;;18.30;73.16
17764;BME280;22245;52.832;13.816;2022-10-16T11:21:07;101428.44;;;18.33;73.36
17764;BME280;22245;52.832;13.816;2022-10-16T11:24:37;101421.72;;;18.37;73.73
17764;BME280;22245;52.832;13.816;2022-10-16T11:28:07;101418.84;;;18.39;72.89
17764;BME280;22245;52.832;13.816;2022-10-16T11:31:36;101422.03;;;18.43;71.38
17764;BME280;22245;52.832;13.816;2022-10-16T11:35:02;101427.28;;;18.44;71.47
17764;BME280;22245;52.832;13.816;2022-10-16T11:38:33;101428.13;;;18.45;70.48
17764;BME280;22245;52.832;13.816;2022-10-16T11:42:02;101429.81;;;18.46;71.31
17764;BME280;22245;52.832;13.816;2022-10-16T11:45:29;101427.09;;;18.46;71.28
17764;BME280;22245;52.832;13.816;2022-10-16T11:48:59;101408.56;;;18.51;71.57
17764;BME280;22245;52.832;13.816;2022-10-16T11:52:28;101412.31;;;18.58;70.88
17764;BME280;22245;52.832;13.816;2022-10-16T11:55:51;101415.81;;;18.59;70.03
17764;BME280;22245;52.832;13.816;2022-10-16T11:59:20;101403.53;;;18.64;70.41
17764;BME280;22245;52.832;13.816;2022-10-16T12:02:53;101417.50;;;18.68;69.25
17764;BME280;22245;52.832;13.816;2022-10-16T12:06:25;101413.31;;;18.65;69.46
17764;BME280;22245;52.832;13.816;2022-10-16T12:09:48;101418.69;;;18.74;68.19
17764;BME280;22245;52.832;13.816;2022-10-16T12:13:28;101421.41;;;18.74;67.08
17764;BME280;22245;52.832;13.816;2022-10-16T12:16:54;101423.25;;;18.82;67.42
17764;BME280;22245;52.832;13.816;2022-10-16T12:20:25;101425.78;;;18.83;66.16
17764;BME280;22245;52.832;13.816;2022-10-16T12:23:48;101433.03;;;18.91;66.09
17764;BME280;22245;52.832;13.816;2022-10-16T12:27:24;101429.84;;;18.95;65.33
17764;BME280;22245;52.832;13.816;2022-10-16T12:30:53;101433.56;;;18.94;64.33
17764;BME280;22245;52.832;13.816;2022-10-16T12:34:22;101428.66;;;18.98;64.67
17764;BME280;22245;52.832;13.816;2022-10-16T12:37:45;101438.78;;;19.04;62.21
17764;BME280;22245;52.832;13.816;2022-10-16T12:41:08;101445.53;;;19.08;63.51
17764;BME280;22245;52.832;13.816;2022-10-16T12:44:35;101439.63;;;19.13;62.70
17764;BME280;22245;52.832;13.816;2022-10-16T12:47:57;101442.66;;;19.18;62.26
17764;BME280;22245;52.832;13.816;2022-10-16T12:51:33;101440.81;;;19.19;60.80
17764;BME280;22245;52.832;13.816;2022-10-16T12:54:56;101451.59;;;19.19;61.73
17764;BME280;22245;52.832;13.816;2022-10-16T12:58:44;101460.38;;;19.21;62.13
17764;BME280;22245;52.832;13.816;2022-10-16T13:02:39;101462.88;;;19.22;60.64
17764;BME280;22245;52.832;13.816;2022-10-16T13:06:15;101462.41;;;19.19;60.26
17764;BME280;22245;52.832;13.816;2022-10-16T13:09:48;101462.41;;;19.19;60.74
17764;BME280;22245;52.832;13.816;2022-10-16T13:17:10;101470.31;;;19.29;61.51
17764;BME280;22245;52.832;13.816;2022-10-16T13:20:50;101477.75;;;19.35;60.04
17764;BME280;22245;52.832;13.816;2022-10-16T13:24:26;101477.75;;;19.35;59.93
17764;BME280;22245;52.832;13.816;2022-10-16T13:28:05;101483.47;;;19.32;59.50
17764;BME280;22245;52.832;13.816;2022-10-16T13:31:28;101495.28;;;19.31;58.51
17764;BME280;22245;52.832;13.816;2022-10-16T13:34:49;101490.22;;;19.28;58.14
17764;BME280;22245;52.832;13.816;2022-10-16T13:38:13;101496.16;;;19.23;59.11
17764;BME280;22245;52.832;13.816;2022-10-16T13:41:35;101508.13;;;19.20;59.28
17764;BME280;22245;52.832;13.816;2022-10-16T13:44:58;101512.00;;;19.09;59.25
17764;BME280;22245;52.832;13.816;2022-10-16T13:48:19;101513.19;;;19.07;59.82
17764;BME280;22245;52.832;13.816;2022-10-16T13:51:41;101519.28;;;19.01;59.85
17764;BME280;22245;52.832;13.816;2022-10-16T13:55:17;101517.75;;;18.98;60.50
17764;BME280;22245;52.832;13.816;2022-10-16T13:58:39;101519.63;;;18.98;60.07
17764;BME280;22245;52.832;13.816;2022-10-16T14:02:15;101518.06;;;18.95;60.33
17764;BME280;22245;52.832;13.816;2022-10-16T14:05:44;101515.84;;;18.90;60.23
17764;BME280;22245;52.832;13.816;2022-10-16T14:09:08;101515.00;;;18.90;60.52
17764;BME280;22245;52.832;13.816;2022-10-16T14:12:31;101519.06;;;18.94;60.42
17764;BME280;22245;52.832;13.816;2022-10-16T14:15:54;101523.59;;;18.93;59.91
17764;BME280;22245;52.832;13.816;2022-10-16T14:19:22;101530.88;;;18.85;60.29
17764;BME280;22245;52.832;13.816;2022-10-16T14:22:45;101539.47;;;18.88;59.91
17764;BME280;22245;52.832;13.816;2022-10-16T14:26:16;101534.59;;;18.92;60.32
17764;BME280;22245;52.832;13.816;2022-10-16T14:29:38;101541.53;;;18.94;58.83
17764;BME280;22245;52.832;13.816;2022-10-16T14:33:02;101547.56;;;18.88;59.13
17764;BME280;22245;52.832;13.816;2022-10-16T14:36:27;101560.03;;;18.89;59.73
17764;BME280;22245;52.832;13.816;2022-10-16T14:39:49;101551.47;;;18.94;59.29
17764;BME280;22245;52.832;13.816;2022-10-16T14:43:19;101563.78;;;18.97;58.48
17764;BME280;22245;52.832;13.816;2022-10-16T14:46:42;101560.56;;;18.93;57.14
17764;BME280;22245;52.832;13.816;2022-10-16T14:50:07;101569.91;;;18.99;58.03
17764;BME280;22245;52.832;13.816;2022-10-16T14:53:30;101568.34;;;19.04;56.96
17764;BME280;22245;52.832;13.816;2022-10-16T14:56:53;101565.66;;;19.04;55.52
17764;BME280;22245;52.832;13.816;2022-10-16T15:00:17;101570.91;;;19.06;55.50
17764;BME280;22245;52.832;13.816;2022-10-16T15:03:39;101573.94;;;19.11;56.28
17764;BME280;22245;52.832;13.816;2022-10-16T15:07:01;101582.22;;;19.18;56.54
17764;BME280;22245;52.832;13.816;2022-10-16T15:10:26;101580.03;;;19.21;55.32
17764;BME280;22245;52.832;13.816;2022-10-16T15:13:48;101577.50;;;19.20;56.05
17764;BME280;22245;52.832;13.816;2022-10-16T15:17:10;101597.22;;;19.20;55.83
17764;BME280;22245;52.832;13.816;2022-10-16T15:20:37;101590.81;;;19.21;56.12
17764;BME280;22245;52.832;13.816;2022-10-16T15:24:00;101593.53;;;19.21;56.74
17764;BME280;22245;52.832;13.816;2022-10-16T15:27:23;101588.66;;;19.17;56.54
17764;BME280;22245;52.832;13.816;2022-10-16T15:30:46;101593.53;;;19.13;56.99
17764;BME280;22245;52.832;13.816;2022-10-16T15:34:08;101601.09;;;19.09;57.37
17764;BME280;22245;52.832;13.816;2022-10-16T15:37:29;101603.31;;;19.06;57.67
17764;BME280;22245;52.832;13.816;2022-10-16T15:40:51;101603.97;;;19.00;57.92
17764;BME280;22245;52.832;13.816;2022-10-16T15:44:14;101619.78;;;18.94;59.53
17764;BME280;22245;52.832;13.816;2022-10-16T15:47:36;101625.31;;;18.85;59.67
17764;BME280;22245;52.832;13.816;2022-10-16T15:51:05;101617.69;;;18.72;60.27
17764;BME280;22245;52.832;13.816;2022-10-16T15:54:27;101638.56;;;18.61;61.44
17764;BME280;22245;52.832;13.816;2022-10-16T15:57:48;101644.25;;;18.50;62.00
17764;BME280;22245;52.832;13.816;2022-10-16T16:01:12;101643.69;;;18.38;62.20
17764;BME280;22245;52.832;13.816;2022-10-16T16:04:33;101656.59;;;18.26;63.08
17764;BME280;22245;52.832;13.816;2022-10-16T16:08:03;101655.34;;;18.12;63.55
17764;BME280;22245;52.832;13.816;2022-10-16T16:11:25;101659.41;;;17.98;64.55
17764;BME280;22245;52.832;13.816;2022-10-16T16:14:47;101656.44;;;17.83;64.55
17764;BME280;22245;52.832;13.816;2022-10-16T16:18:10;101664.25;;;17.68;65.29
17764;BME280;22245;52.832;13.816;2022-10-16T16:21:33;101673.88;;;17.53;65.99
17764;BME280;22245;52.832;13.816;2022-10-16T16:24:55;101675.56;;;17.35;67.14
17764;BME280;22245;52.832;13.816;2022-10-16T16:28:16;101683.31;;;17.20;67.66
17764;BME280;22245;52.832;13.816;2022-10-16T16:31:37;101685.81;;;17.04;68.74
17764;BME280;22245;52.832;13.816;2022-10-16T16:35:00;101698.06;;;16.88;69.23
17764;BME280;22245;52.832;13.816;2022-10-16T16:38:22;101705.94;;;16.72;69.77
17764;BME280;22245;52.832;13.816;2022-10-16T16:41:44;101715.31;;;16.58;70.40
17764;BME280;22245;52.832;13.816;2022-10-16T16:45:07;101723.53;;;16.46;70.90
17764;BME280;22245;52.832;13.816;2022-10-16T16:48:29;101721.91;;;16.35;71.59
17764;BME280;22245;52.832;13.816;2022-10-16T16:51:53;101726.44;;;16.25;71.76
17764;BME280;22245;52.832;13.816;2022-10-16T16:55:15;101738.22;;;16.14;72.53
17764;BME280;22245;52.832;13.816;2022-10-16T16:58:37;101748.25;;;16.02;73.04
17764;BME280;22245;52.832;13.816;2022-10-16T17:01:59;101744.84;;;15.90;73.48
17764;BME280;22245;52.832;13.816;2022-10-16T17:05:21;101764.63;;;15.80;73.84
17764;BME280;22245;52.832;13.816;2022-10-16T17:08:44;101769.97;;;15.70;73.93
17764;BME280;22245;52.832;13.816;2022-10-16T17:12:06;101777.03;;;15.61;74.03
17764;BME280;22245;52.832;13.816;2022-10-16T17:15:29;101776.63;;;15.56;74.89
17764;BME280;22245;52.832;13.816;2022-10-16T17:18:50;101779.97;;;15.48;74.27
17764;BME280;22245;52.832;13.816;2022-10-16T17:22:13;101791.13;;;15.43;75.00
17764;BME280;22245;52.832;13.816;2022-10-16T17:25:36;101789.00;;;15.37;75.06
17764;BME280;22245;52.832;13.816;2022-10-16T17:29:00;101802.97;;;15.31;75.13
17764;BME280;22245;52.832;13.816;2022-10-16T17:32:22;101804.22;;;15.27;75.17
17764;BME280;22245;52.832;13.816;2022-10-16T17:35:46;101811.97;;;15.20;74.97
17764;BME280;22245;52.832;13.816;2022-10-16T17:39:10;101811.63;;;15.13;75.05
17764;BME280;22245;52.832;13.816;2022-10-16T17:42:34;101813.44;;;15.03;75.34
17764;BME280;22245;52.832;13.816;2022-10-16T17:45:56;101826.53;;;14.96;75.54
17764;BME280;22245;52.832;13.816;2022-10-16T17:49:17;101835.25;;;14.88;75.70